createdAt,value
2018-04-29T00:02:00.625Z,47.50
2018-04-29T00:04:26.873Z,48.00
2018-04-29T00:06:53.087Z,47.80
2018-04-29T00:09:19.400Z,48.00
2018-04-29T00:11:46.391Z,48.00
2018-04-29T00:14:13.484Z,48.00
2018-04-29T00:16:39.714Z,47.90
2018-04-29T00:19:06.361Z,48.00
2018-04-29T00:21:32.585Z,48.70
2018-04-29T00:23:58.841Z,48.70
2018-04-29T00:26:25.826Z,49.00
2018-04-29T00:28:52.548Z,49.00
2018-04-29T00:31:19.498Z,49.40
2018-04-29T00:33:46.481Z,49.00
2018-04-29T00:36:12.713Z,49.00
2018-04-29T00:38:38.920Z,49.40
2018-04-29T00:41:05.281Z,50.70
2018-04-29T00:43:32.296Z,49.70
2018-04-29T00:46:00.185Z,50.40
2018-04-29T00:48:27.585Z,49.30
2018-04-29T00:50:53.857Z,49.30
2018-04-29T00:53:20.161Z,49.70
2018-04-29T00:55:46.388Z,49.70
2018-04-29T00:58:13.093Z,50.00
2018-04-29T01:00:40.097Z,50.00
2018-04-29T01:03:06.353Z,50.00
2018-04-29T01:05:32.609Z,50.00
2018-04-29T01:07:59.569Z,50.20
2018-04-29T01:10:25.870Z,50.20
2018-04-29T01:12:52.718Z,50.00
2018-04-29T01:15:18.948Z,50.60
2018-04-29T01:17:45.169Z,50.40
2018-04-29T01:20:11.436Z,50.60
2018-04-29T01:22:38.402Z,49.70
2018-04-29T01:25:06.388Z,50.20
2018-04-29T01:27:32.603Z,50.20
2018-04-29T01:29:59.572Z,50.80
2018-04-29T01:32:25.823Z,50.80
2018-04-29T01:34:52.053Z,50.80
2018-04-29T01:37:18.337Z,50.70
2018-04-29T01:39:44.580Z,51.00
2018-04-29T01:42:10.794Z,51.20
2018-04-29T01:44:37.584Z,51.40
2018-04-29T01:47:04.827Z,52.10
2018-04-29T01:49:31.777Z,52.10
2018-04-29T01:51:58.729Z,51.50
2018-04-29T01:54:25.737Z,51.30
2018-04-29T01:56:52.540Z,51.30
2018-04-29T01:59:19.497Z,52.10
2018-04-29T02:01:46.429Z,52.10
2018-04-29T02:04:13.385Z,52.60
2018-04-29T02:06:40.416Z,52.80
2018-04-29T02:09:07.097Z,52.90
2018-04-29T02:11:33.316Z,53.40
2018-04-29T02:14:00.291Z,54.00
2018-04-29T02:16:26.513Z,54.00
2018-04-29T02:18:53.366Z,53.60
2018-04-29T02:21:19.696Z,53.30
2018-04-29T02:23:46.569Z,53.50
2018-04-29T02:26:12.777Z,54.20
2018-04-29T02:28:39.007Z,53.80
2018-04-29T02:31:05.994Z,53.90
2018-04-29T02:33:32.220Z,53.90
2018-04-29T02:35:58.546Z,53.90
2018-04-29T02:38:24.804Z,53.50
2018-04-29T02:40:51.916Z,53.40
2018-04-29T02:43:18.724Z,54.00
2018-04-29T02:45:45.354Z,53.50
2018-04-29T02:48:12.070Z,53.00
2018-04-29T02:50:38.291Z,53.10
2018-04-29T02:53:04.514Z,53.20
2018-04-29T02:55:31.506Z,53.40
2018-04-29T02:57:58.724Z,53.40
2018-04-29T03:00:26.284Z,53.80
2018-04-29T03:02:53.237Z,53.70
2018-04-29T03:05:20.214Z,53.80
2018-04-29T03:07:46.954Z,53.80
2018-04-29T03:10:13.162Z,54.10
2018-04-29T03:12:40.116Z,54.30
2018-04-29T03:15:07.100Z,54.50
2018-04-29T03:17:33.318Z,54.50
2018-04-29T03:20:00.571Z,55.30
2018-04-29T03:22:26.785Z,55.60
2018-04-29T03:24:53.737Z,54.90
2018-04-29T03:27:20.721Z,54.70
2018-04-29T03:29:46.957Z,54.70
2018-04-29T03:32:13.258Z,54.60
2018-04-29T03:34:40.249Z,54.40
2018-04-29T03:37:06.459Z,54.40
2018-04-29T03:39:33.954Z,54.70
2018-04-29T03:42:00.172Z,54.70
2018-04-29T03:44:26.994Z,54.70
2018-04-29T03:46:54.729Z,55.70
2018-04-29T03:49:22.437Z,55.50
2018-04-29T03:51:49.397Z,55.40
2018-04-29T03:54:15.677Z,55.50
2018-04-29T03:56:42.876Z,55.40
2018-04-29T03:59:22.926Z,55.90
2018-04-29T04:02:02.309Z,55.80
2018-04-29T04:04:28.945Z,55.90
2018-04-29T04:06:55.167Z,55.50
2018-04-29T04:09:21.389Z,55.70
2018-04-29T04:11:47.637Z,55.70
2018-04-29T04:14:13.851Z,55.60
2018-04-29T04:16:40.169Z,55.80
2018-04-29T04:19:07.586Z,56.10
2018-04-29T04:21:33.797Z,56.10
2018-04-29T04:24:00.023Z,56.10
2018-04-29T04:26:26.273Z,56.40
2018-04-29T04:28:52.487Z,57.10
2018-04-29T04:31:18.807Z,56.70
2018-04-29T04:33:45.801Z,57.00
2018-04-29T04:36:12.681Z,57.00
2018-04-29T04:38:39.353Z,56.60
2018-04-29T04:41:06.329Z,56.40
2018-04-29T04:43:33.353Z,56.60
2018-04-29T04:46:00.921Z,55.80
2018-04-29T04:48:28.417Z,55.60
2018-04-29T04:50:54.668Z,55.50
2018-04-29T04:53:20.881Z,55.60
2018-04-29T04:55:47.163Z,55.40
2018-04-29T04:58:14.926Z,55.30
2018-04-29T05:00:41.115Z,55.30
2018-04-29T05:03:08.065Z,55.30
2018-04-29T05:05:34.268Z,55.40
2018-04-29T05:08:01.249Z,55.80
2018-04-29T05:10:27.486Z,55.80
2018-04-29T05:12:53.716Z,55.80
2018-04-29T05:15:20.743Z,56.10
2018-04-29T05:17:47.700Z,55.70
2018-04-29T05:20:13.916Z,55.70
2018-04-29T05:22:40.892Z,55.70
2018-04-29T05:25:07.116Z,55.70
2018-04-29T05:27:33.571Z,55.40
2018-04-29T05:29:59.825Z,55.60
2018-04-29T05:32:26.049Z,55.50
2018-04-29T05:34:53.273Z,55.80
2018-04-29T05:37:20.237Z,55.50
2018-04-29T05:39:46.457Z,55.40
2018-04-29T05:42:13.460Z,55.50
2018-04-29T05:44:40.505Z,55.50
2018-04-29T05:47:08.337Z,54.90
2018-04-29T05:49:35.289Z,54.80
2018-04-29T05:52:02.749Z,54.90
2018-04-29T05:54:29.722Z,54.90
2018-04-29T05:56:56.955Z,54.90
2018-04-29T05:59:24.377Z,54.60
2018-04-29T06:01:50.591Z,54.40
2018-04-29T06:04:16.808Z,54.90
2018-04-29T06:06:43.141Z,54.60
2018-04-29T06:09:10.142Z,54.70
2018-04-29T06:11:36.429Z,54.50
2018-04-29T06:14:03.121Z,54.10
2018-04-29T06:16:29.355Z,53.90
2018-04-29T06:18:55.589Z,53.50
2018-04-29T06:21:21.829Z,54.40
2018-04-29T06:23:48.061Z,53.50
2018-04-29T06:26:14.429Z,53.70
2018-04-29T06:28:40.629Z,53.50
2018-04-29T06:31:07.413Z,53.50
2018-04-29T06:33:34.452Z,52.60
2018-04-29T06:36:01.430Z,52.80
2018-04-29T06:38:27.660Z,52.70
2018-04-29T06:40:53.879Z,52.40
2018-04-29T06:43:21.557Z,51.80
2018-04-29T06:45:48.311Z,51.80
2018-04-29T06:48:15.961Z,51.00
2018-04-29T06:50:42.210Z,51.30
2018-04-29T06:53:08.434Z,50.00
2018-04-29T06:55:34.682Z,51.20
2018-04-29T06:58:01.564Z,50.90
2018-04-29T07:00:27.783Z,50.70
2018-04-29T07:02:54.018Z,50.60
2018-04-29T07:05:20.260Z,50.40
2018-04-29T07:07:46.480Z,50.30
2018-04-29T07:10:13.801Z,50.00
2018-04-29T07:12:40.797Z,49.60
2018-04-29T07:15:07.023Z,49.60
2018-04-29T07:17:33.270Z,49.10
2018-04-29T07:19:59.497Z,49.30
2018-04-29T07:22:25.816Z,49.60
2018-04-29T07:24:52.045Z,49.60
2018-04-29T07:27:18.267Z,49.20
2018-04-29T07:29:45.189Z,48.80
2018-04-29T07:32:11.405Z,49.00
2018-04-29T07:34:37.645Z,47.90
2018-04-29T07:37:03.877Z,48.00
2018-04-29T07:39:30.104Z,48.30
2018-04-29T07:41:56.744Z,47.40
2018-04-29T07:44:23.952Z,47.60
2018-04-29T07:46:51.101Z,47.30
2018-04-29T07:49:18.061Z,48.40
2018-04-29T07:51:44.310Z,48.40
2018-04-29T07:54:10.622Z,47.30
2018-04-29T07:56:38.389Z,45.90
2018-04-29T07:59:05.468Z,46.50
2018-04-29T08:01:31.685Z,46.30
2018-04-29T08:03:57.920Z,46.20
2018-04-29T08:06:24.146Z,44.90
2018-04-29T08:08:51.709Z,45.00
2018-04-29T08:11:18.681Z,44.60
2018-04-29T08:13:44.897Z,44.50
2018-04-29T08:16:11.880Z,45.10
2018-04-29T08:18:38.113Z,45.10
2018-04-29T08:21:04.413Z,45.00
2018-04-29T08:23:31.391Z,42.20
2018-04-29T08:25:58.191Z,42.10
2018-04-29T08:28:25.793Z,43.40
2018-04-29T08:30:52.716Z,43.00
2018-04-29T08:33:19.676Z,45.30
2018-04-29T08:35:46.637Z,43.80
2018-04-29T08:38:12.893Z,43.70
2018-04-29T08:40:39.097Z,44.80
2018-04-29T08:43:06.198Z,45.00
2018-04-29T08:45:33.209Z,44.90
2018-04-29T08:48:00.973Z,44.00
2018-04-29T08:50:27.943Z,43.50
2018-04-29T08:52:54.719Z,43.40
2018-04-29T08:55:20.939Z,44.20
2018-04-29T08:57:47.842Z,43.60
2018-04-29T09:00:14.793Z,43.30
2018-04-29T09:02:41.763Z,42.70
2018-04-29T09:05:08.010Z,42.70
2018-04-29T09:07:35.054Z,42.00
2018-04-29T09:10:01.269Z,42.40
2018-04-29T09:12:28.222Z,41.00
2018-04-29T09:14:55.633Z,40.90
2018-04-29T09:17:21.858Z,40.80
2018-04-29T09:19:48.182Z,41.10
2018-04-29T09:22:14.417Z,40.40
2018-04-29T09:24:41.342Z,41.40
2018-04-29T09:27:08.316Z,41.90
2018-04-29T09:29:34.541Z,41.80
2018-04-29T09:32:00.809Z,42.40
2018-04-29T09:34:27.038Z,41.30
2018-04-29T09:36:53.438Z,41.10
2018-04-29T09:39:19.660Z,42.10
2018-04-29T09:41:45.886Z,39.90
2018-04-29T09:44:12.962Z,40.80
2018-04-29T09:46:39.476Z,38.40
2018-04-29T09:49:06.957Z,39.20
2018-04-29T09:51:34.482Z,39.40
2018-04-29T09:54:00.717Z,39.30
2018-04-29T09:56:26.942Z,39.50
2018-04-29T09:58:53.742Z,37.70
2018-04-29T10:01:24.529Z,37.00
2018-04-29T10:03:51.392Z,36.80
2018-04-29T10:06:17.624Z,36.80
2018-04-29T10:08:44.613Z,37.40
2018-04-29T10:11:10.866Z,37.30
2018-04-29T10:13:37.691Z,36.80
2018-04-29T10:16:03.960Z,36.30
2018-04-29T10:18:30.804Z,37.10
2018-04-29T10:20:57.485Z,37.10
2018-04-29T10:23:24.874Z,35.20
2018-04-29T10:25:51.851Z,35.00
2018-04-29T10:28:18.064Z,34.90
2018-04-29T10:30:45.056Z,35.20
2018-04-29T10:33:11.291Z,35.20
2018-04-29T10:35:37.599Z,35.40
2018-04-29T10:38:03.878Z,34.80
2018-04-29T10:40:30.117Z,34.70
2018-04-29T10:42:56.421Z,35.10
2018-04-29T10:45:23.335Z,35.80
2018-04-29T10:47:50.973Z,35.00
2018-04-29T10:50:17.192Z,34.90
2018-04-29T10:52:43.413Z,35.00
2018-04-29T10:55:10.326Z,35.80
2018-04-29T10:57:38.221Z,35.00
2018-04-29T11:00:04.481Z,34.90
2018-04-29T11:02:31.314Z,33.60
2018-04-29T11:04:57.557Z,36.00
2018-04-29T11:07:24.760Z,35.40
2018-04-29T11:09:51.743Z,35.30
2018-04-29T11:12:18.028Z,35.30
2018-04-29T11:14:44.280Z,33.20
2018-04-29T11:17:11.261Z,33.80
2018-04-29T11:19:38.622Z,33.70
2018-04-29T11:22:04.989Z,34.50
2018-04-29T11:24:31.157Z,34.10
2018-04-29T11:26:58.144Z,33.60
2018-04-29T11:29:24.552Z,33.50
2018-04-29T11:31:51.607Z,33.10
2018-04-29T11:34:18.832Z,32.60
2018-04-29T11:36:45.071Z,32.50
2018-04-29T11:39:11.293Z,32.80
2018-04-29T11:41:37.571Z,32.20
2018-04-29T11:44:05.032Z,31.70
2018-04-29T11:46:32.438Z,32.90
2018-04-29T11:48:59.063Z,32.90
2018-04-29T11:51:25.280Z,32.50
2018-04-29T11:53:51.486Z,32.00
2018-04-29T11:56:17.730Z,32.30
2018-04-29T11:58:48.172Z,31.40
2018-04-29T12:01:15.160Z,31.50
2018-04-29T12:03:41.376Z,31.50
2018-04-29T12:06:08.717Z,31.50
2018-04-29T12:08:35.690Z,28.50
2018-04-29T12:11:01.920Z,28.40
2018-04-29T12:13:28.192Z,29.10
2018-04-29T12:15:54.409Z,30.00
2018-04-29T12:18:21.413Z,30.60
2018-04-29T12:20:48.394Z,30.30
2018-04-29T12:23:14.609Z,30.30
2018-04-29T12:25:40.859Z,30.20
2018-04-29T12:28:07.118Z,30.40
2018-04-29T12:30:33.436Z,29.20
2018-04-29T12:32:59.690Z,30.10
2018-04-29T12:35:25.905Z,30.60
2018-04-29T12:37:52.154Z,29.60
2018-04-29T12:40:18.445Z,29.40
2018-04-29T12:42:46.428Z,30.20
2018-04-29T12:45:12.999Z,30.20
2018-04-29T12:47:39.805Z,29.20
2018-04-29T12:50:06.768Z,29.60
2018-04-29T12:52:32.986Z,29.60
2018-04-29T12:54:59.999Z,28.90
2018-04-29T12:57:26.614Z,28.90
2018-04-29T12:59:52.834Z,28.60
2018-04-29T13:02:19.501Z,28.50
2018-04-29T13:04:45.819Z,28.20
2018-04-29T13:07:12.056Z,27.90
2018-04-29T13:09:38.300Z,27.70
2018-04-29T13:12:04.561Z,27.60
2018-04-29T13:14:31.458Z,27.80
2018-04-29T13:16:58.261Z,28.50
2018-04-29T13:19:24.461Z,28.00
2018-04-29T13:21:50.689Z,28.70
2018-04-29T13:24:16.944Z,28.10
2018-04-29T13:26:43.157Z,28.60
2018-04-29T13:29:09.452Z,28.00
2018-04-29T13:31:35.762Z,28.20
2018-04-29T13:34:01.990Z,27.40
2018-04-29T13:36:28.501Z,28.70
2018-04-29T13:38:54.738Z,28.40
2018-04-29T13:41:21.765Z,28.00
2018-04-29T13:43:49.435Z,27.60
2018-04-29T13:46:16.782Z,27.10
2018-04-29T13:48:44.253Z,27.50
2018-04-29T13:51:11.230Z,26.80
2018-04-29T13:53:39.205Z,26.80
2018-04-29T13:56:05.957Z,26.30
2018-04-29T13:58:32.773Z,26.40
2018-04-29T14:00:59.777Z,26.80
2018-04-29T14:03:25.998Z,26.70
2018-04-29T14:05:52.282Z,25.50
2018-04-29T14:08:19.250Z,25.60
2018-04-29T14:10:46.294Z,24.80
2018-04-29T14:13:14.068Z,23.70
2018-04-29T14:15:41.029Z,23.90
2018-04-29T14:18:07.250Z,23.90
2018-04-29T14:20:34.233Z,23.80
2018-04-29T14:23:00.449Z,23.80
2018-04-29T14:25:26.772Z,23.50
2018-04-29T14:27:53.755Z,22.90
2018-04-29T14:30:19.961Z,22.90
2018-04-29T14:32:46.225Z,23.10
2018-04-29T14:35:12.485Z,23.40
2018-04-29T14:37:38.977Z,23.50
2018-04-29T14:40:05.632Z,23.00
2018-04-29T14:42:31.836Z,23.00
2018-04-29T14:44:59.515Z,23.40
2018-04-29T14:47:27.068Z,22.20
2018-04-29T14:49:54.430Z,23.10
2018-04-29T14:52:22.246Z,23.00
2018-04-29T14:54:48.464Z,23.00
2018-04-29T14:57:15.393Z,22.60
2018-04-29T14:59:42.362Z,21.80
2018-04-29T15:02:08.577Z,21.80
2018-04-29T15:04:34.853Z,21.90
2018-04-29T15:07:01.081Z,21.30
2018-04-29T15:09:27.948Z,20.80
2018-04-29T15:11:54.833Z,21.20
2018-04-29T15:14:21.825Z,21.30
2018-04-29T15:16:48.033Z,21.10
2018-04-29T15:19:14.292Z,20.90
2018-04-29T15:21:40.658Z,20.90
2018-04-29T15:24:07.017Z,21.40
2018-04-29T15:26:34.046Z,20.70
2018-04-29T15:29:00.256Z,21.20
2018-04-29T15:31:26.525Z,21.80
2018-04-29T15:33:52.876Z,22.20
2018-04-29T15:36:20.301Z,21.70
2018-04-29T15:38:46.930Z,21.60
2018-04-29T15:41:13.150Z,21.40
2018-04-29T15:43:39.970Z,20.90
2018-04-29T15:46:07.290Z,21.20
2018-04-29T15:48:34.294Z,21.30
2018-04-29T15:51:00.540Z,21.30
2018-04-29T15:53:26.774Z,21.40
2018-04-29T15:55:53.012Z,21.50
2018-04-29T15:58:19.778Z,21.60
2018-04-29T16:00:46.013Z,21.90
2018-04-29T16:03:12.228Z,21.50
2018-04-29T16:05:38.486Z,20.80
2018-04-29T16:08:05.377Z,21.40
2018-04-29T16:10:32.358Z,21.70
2018-04-29T16:12:58.585Z,21.60
2018-04-29T16:15:24.844Z,21.30
2018-04-29T16:17:51.065Z,21.50
2018-04-29T16:20:17.369Z,21.20
2018-04-29T16:22:44.364Z,20.90
2018-04-29T16:25:11.889Z,20.90
2018-04-29T16:27:38.852Z,21.90
2018-04-29T16:30:05.080Z,21.90
2018-04-29T16:32:31.336Z,22.70
2018-04-29T16:34:58.028Z,22.50
2018-04-29T16:37:24.268Z,22.70
2018-04-29T16:39:50.474Z,23.40
2018-04-29T16:42:16.726Z,24.40
2018-04-29T16:44:43.497Z,24.60
2018-04-29T16:47:10.772Z,26.20
2018-04-29T16:49:37.005Z,26.20
2018-04-29T16:52:03.253Z,26.90
2018-04-29T16:54:29.517Z,26.60
2018-04-29T16:56:56.337Z,26.30
2018-04-29T16:59:22.552Z,26.90
2018-04-29T17:01:48.780Z,26.70
2018-04-29T17:04:16.539Z,27.80
2018-04-29T17:06:45.028Z,27.30
2018-04-29T17:09:12.009Z,27.70
2018-04-29T17:11:38.216Z,27.70
2018-04-29T17:14:05.228Z,28.00
2018-04-29T17:16:31.478Z,28.00
2018-04-29T17:18:57.780Z,28.40
2018-04-29T17:21:24.799Z,28.00
2018-04-29T17:23:51.011Z,28.30
2018-04-29T17:26:17.270Z,28.60
2018-04-29T17:28:43.498Z,28.90
2018-04-29T17:31:11.104Z,29.10
2018-04-29T17:33:37.332Z,29.10
2018-04-29T17:36:03.555Z,30.20
2018-04-29T17:38:29.813Z,29.90
2018-04-29T17:40:56.037Z,31.00
2018-04-29T17:43:23.148Z,30.10
2018-04-29T17:45:50.460Z,30.30
2018-04-29T17:48:17.105Z,30.30
2018-04-29T17:50:43.337Z,30.70
2018-04-29T17:53:10.012Z,30.90
2018-04-29T17:55:36.243Z,31.20
2018-04-29T17:58:03.658Z,33.00
2018-04-29T18:00:30.370Z,32.60
2018-04-29T18:02:57.841Z,32.30
2018-04-29T18:05:24.051Z,32.30
2018-04-29T18:07:51.041Z,34.40
2018-04-29T18:10:17.305Z,34.00
2018-04-29T18:12:43.536Z,33.90
2018-04-29T18:15:10.207Z,34.50
2018-04-29T18:17:36.447Z,34.10
2018-04-29T18:20:03.003Z,33.60
2018-04-29T18:22:29.969Z,35.00
2018-04-29T18:24:56.189Z,35.10
2018-04-29T18:27:23.176Z,34.60
2018-04-29T18:29:49.897Z,34.60
2018-04-29T18:32:16.113Z,34.70
2018-04-29T18:34:43.081Z,34.90
2018-04-29T18:37:09.349Z,34.90
2018-04-29T18:39:35.569Z,34.80
2018-04-29T18:42:02.488Z,34.50
2018-04-29T18:44:30.677Z,35.00
2018-04-29T18:46:57.933Z,35.00
2018-04-29T18:49:24.168Z,35.50
2018-04-29T18:51:50.393Z,34.60
2018-04-29T18:54:17.381Z,34.40
2018-04-29T18:56:44.070Z,34.50
2018-04-29T18:59:10.940Z,34.20
2018-04-29T19:01:38.776Z,34.00
2018-04-29T19:04:07.040Z,34.40
2018-04-29T19:06:33.842Z,34.40
2018-04-29T19:09:00.061Z,34.30
2018-04-29T19:11:27.409Z,35.00
2018-04-29T19:13:54.278Z,35.00
2018-04-29T19:16:21.257Z,35.00
2018-04-29T19:18:47.496Z,34.90
2018-04-29T19:21:13.740Z,35.30
2018-04-29T19:23:40.067Z,35.60
2018-04-29T19:26:07.104Z,36.00
2018-04-29T19:28:33.330Z,35.70
2018-04-29T19:30:59.545Z,35.50
2018-04-29T19:33:26.545Z,35.60
2018-04-29T19:35:52.781Z,35.60
2018-04-29T19:38:19.095Z,36.20
2018-04-29T19:40:45.821Z,36.00
2018-04-29T19:43:12.777Z,36.60
2018-04-29T19:45:39.466Z,36.60
2018-04-29T19:48:06.229Z,36.70
2018-04-29T19:50:32.460Z,36.20
2018-04-29T19:52:59.243Z,36.40
2018-04-29T19:55:26.212Z,36.40
2018-04-29T19:57:53.142Z,36.50
2018-04-29T20:00:20.705Z,36.60
2018-04-29T20:02:47.661Z,37.00
2018-04-29T20:05:14.637Z,37.50
2018-04-29T20:07:40.884Z,37.50
2018-04-29T20:10:07.117Z,38.10
2018-04-29T20:12:33.431Z,38.00
2018-04-29T20:14:59.687Z,37.70
2018-04-29T20:17:25.915Z,38.40
2018-04-29T20:19:52.170Z,38.00
2018-04-29T20:22:18.445Z,38.10
2018-04-29T20:24:45.947Z,38.20
2018-04-29T20:27:12.222Z,38.30
2018-04-29T20:29:38.427Z,38.60
2018-04-29T20:32:04.706Z,37.90
2018-04-29T20:34:31.661Z,39.00
2018-04-29T20:36:59.449Z,38.60
2018-04-29T20:39:25.663Z,38.50
2018-04-29T20:41:52.636Z,38.90
2018-04-29T20:44:19.762Z,39.00
2018-04-29T20:46:46.577Z,39.20
2018-04-29T20:49:13.477Z,38.50
2018-04-29T20:51:40.441Z,38.60
2018-04-29T20:54:06.669Z,38.60
2018-04-29T20:56:33.405Z,38.30
2018-04-29T20:59:00.402Z,38.60
2018-04-29T21:01:26.645Z,38.60
2018-04-29T21:03:52.909Z,38.80
2018-04-29T21:06:19.877Z,38.70
2018-04-29T21:08:46.925Z,38.70
2018-04-29T21:11:13.915Z,38.70
2018-04-29T21:13:40.168Z,38.70
2018-04-29T21:16:06.442Z,39.60
2018-04-29T21:18:33.469Z,38.70
2018-04-29T21:20:59.780Z,38.70
2018-04-29T21:23:26.786Z,38.90
2018-04-29T21:25:53.769Z,39.20
2018-04-29T21:28:20.036Z,39.20
2018-04-29T21:30:46.284Z,38.80
2018-04-29T21:33:12.506Z,38.80
2018-04-29T21:35:39.546Z,38.90
2018-04-29T21:38:05.831Z,38.90
2018-04-29T21:40:32.026Z,38.80
2018-04-29T21:42:58.817Z,38.20
2018-04-29T21:45:25.492Z,37.90
2018-04-29T21:47:52.242Z,38.10
2018-04-29T21:50:18.492Z,38.30
2018-04-29T21:52:45.388Z,38.40
2018-04-29T21:55:12.129Z,38.30
2018-04-29T21:57:39.597Z,38.20
2018-04-29T22:00:05.955Z,38.10
2018-04-29T22:02:32.187Z,38.00
2018-04-29T22:04:58.442Z,38.00
2018-04-29T22:07:24.665Z,38.00
2018-04-29T22:09:50.953Z,37.90
2018-04-29T22:12:17.941Z,38.30
2018-04-29T22:21:30.374Z,37.70
2018-04-29T22:23:56.613Z,37.40
2018-04-29T22:26:22.830Z,37.60
2018-04-29T22:28:49.090Z,37.70
2018-04-29T22:31:15.332Z,37.70
2018-04-29T22:33:42.809Z,38.00
2018-04-29T22:36:10.685Z,38.30
2018-04-29T22:38:37.653Z,38.80
2018-04-29T22:41:04.629Z,38.70
2018-04-29T22:43:31.437Z,38.30
2018-04-29T22:45:58.908Z,38.80
2018-04-29T22:48:25.749Z,38.80
2018-04-29T22:50:52.532Z,38.80
2018-04-29T22:53:19.409Z,38.60
2018-04-29T22:55:45.645Z,38.50
2018-04-29T22:58:12.316Z,38.60
2018-04-29T23:00:39.286Z,38.70
2018-04-29T23:03:05.506Z,38.70
2018-04-29T23:05:32.484Z,38.80
2018-04-29T23:07:58.689Z,38.70
2018-04-29T23:10:25.745Z,38.70
2018-04-29T23:12:51.998Z,38.70
2018-04-29T23:15:18.330Z,38.40
2018-04-29T23:17:45.021Z,38.30
2018-04-29T23:20:11.249Z,38.30
2018-04-29T23:22:37.469Z,38.50
2018-04-29T23:25:03.706Z,38.60
2018-04-29T23:27:29.905Z,38.40
2018-04-29T23:29:56.625Z,38.40
2018-04-29T23:32:23.594Z,39.10
2018-04-29T23:34:49.818Z,39.10
2018-04-29T23:37:16.802Z,38.50
2018-04-29T23:39:43.474Z,38.50
2018-04-29T23:42:09.692Z,38.80
2018-04-29T23:44:36.485Z,38.90
2018-04-29T23:47:05.085Z,38.80
2018-04-29T23:49:32.493Z,38.60
2018-04-29T23:51:58.717Z,38.60
2018-04-29T23:54:24.960Z,38.40
2018-04-29T23:56:51.677Z,38.20
2018-04-29T23:59:17.899Z,38.20
